createdAt,value
2018-01-04T00:00:29.793Z,0
2018-01-04T00:00:58.602Z,0
2018-01-04T00:01:26.691Z,0
2018-01-04T00:02:10.683Z,0
2018-01-04T00:03:17.069Z,0
2018-01-04T00:03:45.904Z,0
2018-01-04T00:04:29.659Z,0
2018-01-04T00:04:58.027Z,0
2018-01-04T00:05:27.908Z,0
2018-01-04T00:05:56.522Z,0
2018-01-04T00:06:25.416Z,0
2018-01-04T00:06:54.447Z,0
2018-01-04T00:07:23.029Z,0
2018-01-04T00:07:51.528Z,0
2018-01-04T00:08:35.602Z,0
2018-01-04T00:09:03.945Z,0
2018-01-04T00:09:47.027Z,0
2018-01-04T00:10:30.017Z,0
2018-01-04T00:10:58.067Z,0
2018-01-04T00:11:26.024Z,0
2018-01-04T00:11:54.056Z,0
2018-01-04T00:12:38.527Z,0
2018-01-04T00:13:07.380Z,0
2018-01-04T00:13:35.836Z,0
2018-01-04T00:14:18.836Z,0
2018-01-04T00:15:01.900Z,0
2018-01-04T00:15:31.112Z,0
2018-01-04T00:16:00.131Z,0
2018-01-04T00:17:10.736Z,0
2018-01-04T00:17:39.182Z,0
2018-01-04T00:18:08.220Z,0
2018-01-04T00:18:37.530Z,0
2018-01-04T00:19:05.901Z,0
2018-01-04T00:19:49.013Z,0
2018-01-04T00:20:18.516Z,0
2018-01-04T00:21:01.902Z,0
2018-01-04T00:21:44.473Z,0
2018-01-04T00:22:14.913Z,0
2018-01-04T00:22:42.843Z,0
2018-01-04T00:23:11.863Z,0
2018-01-04T00:23:40.741Z,0
2018-01-04T00:24:08.805Z,0
2018-01-04T00:24:36.851Z,0
2018-01-04T00:25:20.147Z,0
2018-01-04T00:25:48.078Z,0
2018-01-04T00:26:16.101Z,0
2018-01-04T00:27:13.602Z,0
2018-01-04T00:27:41.611Z,0
2018-01-04T00:28:24.635Z,0
2018-01-04T00:29:09.344Z,0
2018-01-04T00:29:52.717Z,0
2018-01-04T00:30:35.275Z,0
2018-01-04T00:31:18.733Z,0
2018-01-04T00:31:46.595Z,0
2018-01-04T00:32:16.296Z,0
2018-01-04T00:32:45.598Z,0
2018-01-04T00:33:14.432Z,0
2018-01-04T00:33:42.626Z,0
2018-01-04T00:34:11.319Z,0
2018-01-04T00:34:40.566Z,0
2018-01-04T00:35:09.381Z,0
2018-01-04T00:35:38.270Z,0
2018-01-04T00:36:22.103Z,0
2018-01-04T00:36:51.028Z,0
2018-01-04T00:37:19.723Z,0
2018-01-04T00:37:47.753Z,0
2018-01-04T00:38:16.438Z,0
2018-01-04T00:38:47.156Z,0
2018-01-04T00:39:16.203Z,0
2018-01-04T00:39:44.919Z,0
2018-01-04T00:40:13.179Z,0
2018-01-04T00:40:41.197Z,0
2018-01-04T00:41:24.177Z,0
2018-01-04T00:42:07.256Z,0
2018-01-04T00:42:50.975Z,0
2018-01-04T00:43:19.827Z,0
2018-01-04T00:43:48.314Z,0
2018-01-04T00:44:47.505Z,0
2018-01-04T00:45:16.822Z,0
2018-01-04T00:45:44.827Z,0
2018-01-04T00:46:14.431Z,0
2018-01-04T00:46:42.442Z,0
2018-01-04T00:47:12.056Z,0
2018-01-04T00:47:41.504Z,0
2018-01-04T00:48:53.553Z,0
2018-01-04T00:49:23.348Z,0
2018-01-04T00:49:52.280Z,0
2018-01-04T00:50:21.961Z,0
2018-01-04T00:50:50.426Z,0
2018-01-04T00:53:03.411Z,0
2018-01-04T00:53:32.229Z,0
2018-01-04T00:54:00.911Z,0
2018-01-04T00:54:28.936Z,0
2018-01-04T00:54:56.972Z,0
2018-01-04T00:55:25.000Z,0
2018-01-04T00:55:53.800Z,0
2018-01-04T00:56:22.648Z,0
2018-01-04T00:56:51.329Z,0
2018-01-04T00:57:20.328Z,0
2018-01-04T00:57:48.354Z,0
2018-01-04T00:58:18.223Z,0
2018-01-04T00:58:46.865Z,0
2018-01-04T00:59:15.487Z,0
2018-01-04T01:00:41.189Z,0
2018-01-04T01:01:10.173Z,0
2018-01-04T01:01:39.536Z,0
2018-01-04T01:02:09.764Z,0
2018-01-04T01:02:37.795Z,0
2018-01-04T01:03:06.261Z,0
2018-01-04T01:04:33.014Z,0
2018-01-04T01:05:01.069Z,0
2018-01-04T01:06:57.427Z,0
2018-01-04T01:08:40.232Z,0
2018-01-04T01:09:08.691Z,0
2018-01-04T01:09:40.728Z,0
2018-01-04T01:10:09.989Z,0
2018-01-04T01:11:40.000Z,0
2018-01-04T01:12:08.447Z,0
2018-01-04T01:12:36.469Z,0
2018-01-04T01:13:19.497Z,0
2018-01-04T01:13:48.100Z,0
2018-01-04T01:14:16.905Z,0
2018-01-04T01:14:46.194Z,0
2018-01-04T01:16:27.131Z,0
2018-01-04T01:16:56.024Z,0
2018-01-04T01:17:24.804Z,0
2018-01-04T01:18:37.955Z,0
2018-01-04T01:19:22.919Z,0
2018-01-04T01:20:20.777Z,0
2018-01-04T01:21:19.390Z,0
2018-01-04T01:21:47.560Z,0
2018-01-04T01:22:17.032Z,0
2018-01-04T01:22:59.590Z,0
2018-01-04T01:23:28.543Z,0
2018-01-04T01:23:56.677Z,0
2018-01-04T01:24:25.149Z,0
2018-01-04T01:24:53.530Z,0
2018-01-04T01:26:07.326Z,0
2018-01-04T01:27:05.326Z,0
2018-01-04T01:27:33.783Z,0
2018-01-04T01:28:02.226Z,0
2018-01-04T01:28:30.172Z,0
2018-01-04T01:28:58.213Z,0
2018-01-04T01:29:26.238Z,0
2018-01-04T01:29:54.242Z,0
2018-01-04T01:30:22.707Z,0
2018-01-04T01:31:05.920Z,0
2018-01-04T01:31:34.362Z,0
2018-01-04T01:32:02.549Z,0
2018-01-04T01:33:00.377Z,0
2018-01-04T01:33:28.415Z,0
2018-01-04T01:35:24.520Z,0
2018-01-04T01:37:19.465Z,0
2018-01-04T01:37:47.395Z,0
2018-01-04T01:38:58.892Z,0
2018-01-04T01:39:27.351Z,0
2018-01-04T01:40:10.316Z,0
2018-01-04T01:40:38.336Z,0
2018-01-04T01:41:21.117Z,0
2018-01-04T01:42:04.536Z,0
2018-01-04T01:43:33.212Z,0
2018-01-04T01:44:16.009Z,0
2018-01-04T01:45:28.000Z,0
2018-01-04T01:45:58.560Z,0
2018-01-04T01:46:26.423Z,0
2018-01-04T01:46:55.099Z,0
2018-01-04T01:47:23.816Z,0
2018-01-04T01:48:35.845Z,0
2018-01-04T01:49:06.191Z,0
2018-01-04T01:49:35.232Z,0
2018-01-04T01:50:03.771Z,0
2018-01-04T01:51:16.516Z,0
2018-01-04T01:52:00.404Z,0
2018-01-04T01:52:28.783Z,0
2018-01-04T01:52:57.681Z,0
2018-01-04T01:53:40.665Z,0
2018-01-04T01:54:09.097Z,0
2018-01-04T01:54:37.981Z,0
2018-01-04T01:55:21.752Z,0
2018-01-04T01:56:20.186Z,0
2018-01-04T01:56:48.363Z,0
2018-01-04T01:57:16.900Z,0
2018-01-04T01:57:46.206Z,0
2018-01-04T01:58:14.050Z,0
2018-01-04T01:58:42.090Z,0
2018-01-04T01:59:10.914Z,0
2018-01-04T01:59:44.243Z,0
2018-01-04T02:00:12.583Z,0
2018-01-04T02:00:56.416Z,0
2018-01-04T02:01:25.688Z,0
2018-01-04T02:01:54.227Z,0
2018-01-04T02:02:51.552Z,0
2018-01-04T02:03:20.807Z,0
2018-01-04T02:05:01.521Z,0
2018-01-04T02:05:29.561Z,0
2018-01-04T02:05:57.837Z,0
2018-01-04T02:06:27.087Z,0
2018-01-04T02:06:55.031Z,0
2018-01-04T02:07:37.566Z,0
2018-01-04T02:08:05.601Z,0
2018-01-04T02:08:35.183Z,0
2018-01-04T02:09:32.664Z,0
2018-01-04T02:10:02.023Z,0
2018-01-04T02:10:31.682Z,0
2018-01-04T02:10:59.958Z,0
2018-01-04T02:11:28.839Z,0
2018-01-04T02:11:56.889Z,0
2018-01-04T02:12:40.822Z,0
2018-01-04T02:13:08.850Z,0
2018-01-04T02:13:37.301Z,0
2018-01-04T02:14:06.150Z,0
2018-01-04T02:14:49.884Z,0
2018-01-04T02:15:19.209Z,0
2018-01-04T02:15:47.724Z,0
2018-01-04T02:16:17.075Z,0
2018-01-04T02:16:46.325Z,0
2018-01-04T02:17:29.642Z,0
2018-01-04T02:18:27.647Z,0
2018-01-04T02:19:10.210Z,0
2018-01-04T02:19:38.162Z,0
2018-01-04T02:20:35.653Z,0
2018-01-04T02:21:03.600Z,0
2018-01-04T02:21:31.562Z,0
2018-01-04T02:22:00.770Z,0
2018-01-04T02:22:29.566Z,0
2018-01-04T02:22:58.586Z,0
2018-01-04T02:23:27.115Z,0
2018-01-04T02:23:55.446Z,0
2018-01-04T02:24:52.532Z,0
2018-01-04T02:25:21.492Z,0
2018-01-04T02:25:49.953Z,0
2018-01-04T02:27:45.340Z,0
2018-01-04T02:29:56.353Z,0
2018-01-04T02:30:24.271Z,0
2018-01-04T02:30:53.450Z,0
2018-01-04T02:31:36.370Z,0
2018-01-04T02:32:05.331Z,0
2018-01-04T02:32:48.743Z,0
2018-01-04T02:33:17.716Z,0
2018-01-04T02:34:02.137Z,0
2018-01-04T02:34:44.815Z,0
2018-01-04T02:36:56.052Z,0
2018-01-04T02:39:04.773Z,0
2018-01-04T02:39:33.225Z,0
2018-01-04T02:40:02.024Z,0
2018-01-04T02:40:30.055Z,0
2018-01-04T02:40:58.085Z,0
2018-01-04T02:41:42.307Z,0
2018-01-04T02:42:54.493Z,0
2018-01-04T02:43:24.146Z,0
2018-01-04T02:44:22.006Z,0
2018-01-04T02:44:50.456Z,0
2018-01-04T02:45:33.268Z,0
2018-01-04T02:46:34.391Z,0
2018-01-04T02:47:53.009Z,0
2018-01-04T02:48:50.988Z,0
2018-01-04T02:49:19.786Z,0
2018-01-04T02:49:48.225Z,0
2018-01-04T02:50:16.236Z,0
2018-01-04T02:51:28.025Z,0
2018-01-04T02:51:57.630Z,0
2018-01-04T02:52:26.075Z,0
2018-01-04T02:52:54.105Z,0
2018-01-04T02:53:23.645Z,0
2018-01-04T02:54:26.983Z,0
2018-01-04T02:54:56.315Z,0
2018-01-04T02:55:25.217Z,0
2018-01-04T02:55:53.928Z,0
2018-01-04T02:56:37.617Z,0
2018-01-04T02:57:07.278Z,0
2018-01-04T02:58:19.279Z,0
2018-01-04T02:58:47.833Z,0
2018-01-04T02:59:45.699Z,0
2018-01-04T03:00:25.610Z,0
2018-01-04T03:00:54.407Z,0
2018-01-04T03:01:38.065Z,0
2018-01-04T03:03:09.284Z,0
2018-01-04T03:03:37.551Z,0
2018-01-04T03:04:06.134Z,0
2018-01-04T03:04:34.579Z,0
2018-01-04T03:05:18.336Z,0
2018-01-04T03:07:43.762Z,0
2018-01-04T03:08:12.292Z,0
2018-01-04T03:09:10.562Z,0
2018-01-04T03:09:40.298Z,0
2018-01-04T03:10:23.610Z,0
2018-01-04T03:10:51.614Z,0
2018-01-04T03:11:19.842Z,0
2018-01-04T03:11:47.854Z,0
2018-01-04T03:12:18.914Z,0
2018-01-04T03:12:48.338Z,0
2018-01-04T03:13:33.659Z,0
2018-01-04T03:14:02.482Z,0
2018-01-04T03:14:45.827Z,0
2018-01-04T03:15:14.054Z,0
2018-01-04T03:17:29.011Z,0
2018-01-04T03:19:39.968Z,0
2018-01-04T03:20:08.406Z,0
2018-01-04T03:20:36.438Z,0
2018-01-04T03:21:04.362Z,0
2018-01-04T03:21:32.374Z,0
2018-01-04T03:22:01.231Z,0
2018-01-04T03:22:30.562Z,0
2018-01-04T03:23:42.045Z,0
2018-01-04T03:24:10.058Z,0
2018-01-04T03:24:38.118Z,0
2018-01-04T03:25:06.572Z,0
2018-01-04T03:25:49.134Z,0
2018-01-04T03:26:18.023Z,0
2018-01-04T03:26:46.051Z,0
2018-01-04T03:27:14.296Z,0
2018-01-04T03:27:42.284Z,0
2018-01-04T03:28:10.517Z,0
2018-01-04T03:28:39.364Z,0
2018-01-04T03:29:22.326Z,0
2018-01-04T03:29:51.649Z,0
2018-01-04T03:30:19.561Z,0
2018-01-04T03:30:48.033Z,0
2018-01-04T03:31:17.186Z,0
2018-01-04T03:33:27.213Z,0
2018-01-04T03:35:51.129Z,0
2018-01-04T03:37:45.269Z,0
2018-01-04T03:38:13.697Z,0
2018-01-04T03:38:43.923Z,0
2018-01-04T03:39:11.960Z,0
2018-01-04T03:39:40.520Z,0
2018-01-04T03:40:09.543Z,0
2018-01-04T03:40:38.767Z,0
2018-01-04T03:41:06.809Z,0
2018-01-04T03:43:04.959Z,0
2018-01-04T03:43:34.736Z,0
2018-01-04T03:44:17.690Z,0
2018-01-04T03:45:14.756Z,0
2018-01-04T03:45:43.196Z,0
2018-01-04T03:46:26.420Z,0
2018-01-04T03:46:55.108Z,0
2018-01-04T03:48:38.266Z,0
2018-01-04T03:49:22.635Z,0
2018-01-04T03:50:05.709Z,0
2018-01-04T03:50:53.646Z,0
2018-01-04T03:51:22.536Z,0
2018-01-04T03:51:50.896Z,0
2018-01-04T03:52:19.718Z,0
2018-01-04T03:53:30.739Z,0
2018-01-04T03:53:59.255Z,0
2018-01-04T03:54:27.590Z,0
2018-01-04T03:55:53.088Z,0
2018-01-04T03:56:21.108Z,0
2018-01-04T03:57:48.753Z,0
2018-01-04T03:58:16.661Z,0
2018-01-04T03:58:45.341Z,0
2018-01-04T03:59:14.314Z,0
2018-01-04T03:59:42.367Z,0
2018-01-04T04:00:12.773Z,0
2018-01-04T04:01:24.366Z,0
2018-01-04T04:01:53.185Z,0
2018-01-04T04:02:37.315Z,0
2018-01-04T04:05:01.043Z,0
2018-01-04T04:05:29.493Z,0
2018-01-04T04:05:58.354Z,0
2018-01-04T04:06:26.817Z,0
2018-01-04T04:07:10.357Z,0
2018-01-04T04:08:36.262Z,0
2018-01-04T04:09:05.201Z,0
2018-01-04T04:09:33.127Z,0
2018-01-04T04:10:02.883Z,0
2018-01-04T04:10:31.314Z,0
2018-01-04T04:10:59.788Z,0
2018-01-04T04:11:28.229Z,0
2018-01-04T04:11:56.274Z,0
2018-01-04T04:12:24.440Z,0
2018-01-04T04:13:36.804Z,0
2018-01-04T04:15:32.528Z,0
2018-01-04T04:16:00.984Z,0
2018-01-04T04:16:43.729Z,0
2018-01-04T04:17:12.321Z,0
2018-01-04T04:18:45.116Z,0
2018-01-04T04:19:25.985Z,0
2018-01-04T04:19:59.192Z,0
2018-01-04T04:20:28.022Z,0
2018-01-04T04:21:11.551Z,0
2018-01-04T04:21:56.892Z,0
2018-01-04T04:22:25.476Z,0
2018-01-04T04:24:12.059Z,0
2018-01-04T04:24:40.501Z,0
2018-01-04T04:25:25.565Z,0
2018-01-04T04:25:53.929Z,0
2018-01-04T04:26:24.659Z,0
2018-01-04T04:26:53.328Z,0
2018-01-04T04:27:38.499Z,0
2018-01-04T04:28:21.730Z,0
2018-01-04T04:30:31.974Z,0
2018-01-04T04:31:00.777Z,0
2018-01-04T04:31:29.262Z,0
2018-01-04T04:31:57.661Z,0
2018-01-04T04:33:38.387Z,0
2018-01-04T04:34:07.237Z,0
2018-01-04T04:34:37.390Z,0
2018-01-04T04:35:05.639Z,0
2018-01-04T04:36:04.794Z,0
2018-01-04T04:38:58.211Z,0
2018-01-04T04:39:34.140Z,0
2018-01-04T04:40:31.842Z,0
2018-01-04T04:41:16.382Z,0
2018-01-04T04:42:13.671Z,0
2018-01-04T04:44:09.473Z,0
2018-01-04T04:45:36.322Z,0
2018-01-04T04:47:44.925Z,0
2018-01-04T04:53:18.595Z,0
2018-01-04T04:54:02.312Z,0
2018-01-04T04:55:13.907Z,0
2018-01-04T04:57:09.370Z,0
2018-01-04T05:01:14.643Z,0
2018-01-04T05:05:33.943Z,0
2018-01-04T05:08:02.790Z,0
2018-01-04T05:08:32.044Z,0
2018-01-04T05:09:43.621Z,0
2018-01-04T05:10:42.789Z,0
2018-01-04T05:11:12.209Z,0
2018-01-04T05:11:41.041Z,0
2018-01-04T05:12:10.502Z,0
2018-01-04T05:12:40.649Z,0
2018-01-04T05:13:09.116Z,0
2018-01-04T05:13:37.568Z,0
2018-01-04T05:14:07.218Z,0
2018-01-04T05:14:36.299Z,0
2018-01-04T05:15:05.070Z,0
2018-01-04T05:15:34.613Z,0
2018-01-04T05:16:02.865Z,0
2018-01-04T05:16:31.301Z,0
2018-01-04T05:17:00.549Z,0
2018-01-04T05:17:29.493Z,0
2018-01-04T05:18:00.156Z,0
2018-01-04T05:18:28.618Z,0
2018-01-04T05:18:57.424Z,0
2018-01-04T05:19:54.832Z,0
2018-01-04T05:20:24.555Z,0
2018-01-04T05:21:06.935Z,0
2018-01-04T05:22:46.962Z,0
2018-01-04T05:25:39.778Z,0
2018-01-04T05:27:09.649Z,0
2018-01-04T05:28:07.073Z,0
2018-01-04T05:28:35.536Z,0
2018-01-04T05:29:03.716Z,0
2018-01-04T05:29:46.254Z,0
2018-01-04T05:30:15.656Z,0
2018-01-04T05:30:58.482Z,0
2018-01-04T05:31:41.028Z,0
2018-01-04T05:32:09.827Z,0
2018-01-04T05:32:54.587Z,0
2018-01-04T05:34:21.128Z,0
2018-01-04T05:35:33.145Z,0
2018-01-04T05:36:01.295Z,0
2018-01-04T05:37:15.146Z,0
2018-01-04T05:38:59.850Z,0
2018-01-04T05:39:28.624Z,0
2018-01-04T05:39:58.598Z,0
2018-01-04T05:40:41.295Z,0
2018-01-04T05:42:21.834Z,0
2018-01-04T05:42:50.574Z,0
2018-01-04T05:43:34.305Z,0
2018-01-04T05:44:04.187Z,0
2018-01-04T05:44:33.336Z,0
2018-01-04T05:45:01.278Z,0
2018-01-04T05:46:13.354Z,0
2018-01-04T05:47:11.158Z,0
2018-01-04T05:47:39.597Z,0
2018-01-04T05:48:51.128Z,0
2018-01-04T05:50:02.234Z,0
2018-01-04T05:50:30.782Z,0
2018-01-04T05:51:00.884Z,0
2018-01-04T05:51:29.602Z,0
2018-01-04T05:52:12.496Z,0
2018-01-04T05:52:40.432Z,0
2018-01-04T05:53:10.814Z,0
2018-01-04T05:53:40.824Z,0
2018-01-04T05:54:13.905Z,0
2018-01-04T05:54:42.898Z,0
2018-01-04T05:56:09.238Z,0
2018-01-04T05:56:37.176Z,0
2018-01-04T05:57:05.860Z,0
2018-01-04T05:57:34.649Z,0
2018-01-04T05:59:14.965Z,0
2018-01-04T06:00:45.861Z,0
2018-01-04T06:01:19.726Z,0
2018-01-04T06:02:02.692Z,0
2018-01-04T06:02:31.923Z,0
2018-01-04T06:02:59.853Z,0
2018-01-04T06:03:27.878Z,0
2018-01-04T06:03:56.701Z,0
2018-01-04T06:04:25.163Z,0
2018-01-04T06:05:08.089Z,0
2018-01-04T06:06:37.999Z,0
2018-01-04T06:07:06.706Z,0
2018-01-04T06:07:35.065Z,0
2018-01-04T06:08:18.836Z,0
2018-01-04T06:08:48.255Z,0
2018-01-04T06:09:17.238Z,0
2018-01-04T06:10:15.722Z,0
2018-01-04T06:10:44.757Z,0
2018-01-04T06:11:14.766Z,0
2018-01-04T06:11:46.636Z,0
2018-01-04T06:12:15.180Z,0
2018-01-04T06:12:44.529Z,0
2018-01-04T06:13:13.302Z,0
2018-01-04T06:13:42.927Z,0
2018-01-04T06:14:12.460Z,0
2018-01-04T06:14:41.703Z,0
2018-01-04T06:16:07.662Z,0
2018-01-04T06:17:21.148Z,0
2018-01-04T06:17:50.301Z,0
2018-01-04T06:18:19.128Z,0
2018-01-04T06:18:52.971Z,0
2018-01-04T06:19:21.328Z,0
2018-01-04T06:19:49.861Z,0
2018-01-04T06:21:15.988Z,0
2018-01-04T06:22:16.137Z,0
2018-01-04T06:22:59.767Z,0
2018-01-04T06:23:27.710Z,0
2018-01-04T06:24:11.475Z,0
2018-01-04T06:24:41.281Z,0
2018-01-04T06:25:09.200Z,0
2018-01-04T06:25:52.160Z,0
2018-01-04T06:26:21.175Z,0
2018-01-04T06:28:30.357Z,0
2018-01-04T06:30:11.003Z,0
2018-01-04T06:30:39.452Z,0
2018-01-04T06:31:09.973Z,0
2018-01-04T06:31:38.741Z,0
2018-01-04T06:32:07.548Z,0
2018-01-04T06:32:35.988Z,0
2018-01-04T06:33:04.003Z,0
2018-01-04T06:33:32.548Z,0
2018-01-04T06:34:01.474Z,0
2018-01-04T06:34:30.335Z,0
2018-01-04T06:34:58.344Z,0
2018-01-04T06:35:27.025Z,0
2018-01-04T06:35:55.866Z,0
2018-01-04T06:36:41.041Z,0
2018-01-04T06:37:10.481Z,0
2018-01-04T06:38:10.502Z,0
2018-01-04T06:38:53.059Z,0
2018-01-04T06:39:21.530Z,0
2018-01-04T06:39:50.033Z,0
2018-01-04T06:40:18.009Z,0
2018-01-04T06:40:47.028Z,0
2018-01-04T06:41:17.162Z,0
2018-01-04T06:41:45.665Z,0
2018-01-04T06:42:13.716Z,0
2018-01-04T06:42:41.735Z,0
2018-01-04T06:43:10.167Z,0
2018-01-04T06:43:40.712Z,0
2018-01-04T06:46:05.154Z,0
2018-01-04T06:46:34.180Z,0
2018-01-04T06:47:02.613Z,0
2018-01-04T06:48:56.943Z,0
2018-01-04T06:49:40.427Z,0
2018-01-04T06:50:09.570Z,0
2018-01-04T06:50:38.436Z,0
2018-01-04T06:51:07.543Z,0
2018-01-04T06:51:35.464Z,0
2018-01-04T06:52:47.664Z,0
2018-01-04T06:53:16.237Z,0
2018-01-04T06:53:44.262Z,0
2018-01-04T06:54:13.119Z,0
2018-01-04T06:54:41.576Z,0
2018-01-04T06:55:24.125Z,0
2018-01-04T06:56:07.878Z,0
2018-01-04T06:56:36.407Z,0
2018-01-04T06:57:04.715Z,0
2018-01-04T06:57:33.471Z,0
2018-01-04T06:58:30.802Z,0
2018-01-04T06:59:15.234Z,0
2018-01-04T07:00:22.087Z,0
2018-01-04T07:01:49.837Z,0
2018-01-04T07:03:15.184Z,0
2018-01-04T07:03:43.447Z,0
2018-01-04T07:04:13.300Z,0
2018-01-04T07:04:56.706Z,0
2018-01-04T07:05:24.743Z,0
2018-01-04T07:05:53.207Z,0
2018-01-04T07:06:21.654Z,0
2018-01-04T07:08:01.746Z,0
2018-01-04T07:08:44.938Z,0
2018-01-04T07:09:12.843Z,0
2018-01-04T07:09:41.290Z,0
2018-01-04T07:10:10.986Z,0
2018-01-04T07:10:39.021Z,0
2018-01-04T07:11:07.054Z,0
2018-01-04T07:11:35.494Z,0
2018-01-04T07:12:03.419Z,0
2018-01-04T07:12:32.198Z,0
2018-01-04T07:13:01.584Z,0
2018-01-04T07:13:44.892Z,0
2018-01-04T07:14:13.328Z,0
2018-01-04T07:14:41.357Z,0
2018-01-04T07:15:09.800Z,0
2018-01-04T07:15:37.744Z,0
2018-01-04T07:16:06.637Z,0
2018-01-04T07:16:36.735Z,0
2018-01-04T07:17:19.403Z,0
2018-01-04T07:17:48.473Z,0
2018-01-04T07:18:17.924Z,0
2018-01-04T07:18:46.654Z,0
2018-01-04T07:19:16.824Z,0
2018-01-04T07:19:46.495Z,0
2018-01-04T07:20:29.475Z,0
2018-01-04T07:21:12.019Z,0
2018-01-04T07:21:40.869Z,0
2018-01-04T07:22:24.729Z,0
2018-01-04T07:23:22.262Z,0
2018-01-04T07:23:51.470Z,0
2018-01-04T07:24:21.464Z,0
2018-01-04T07:24:50.297Z,0
2018-01-04T07:25:18.765Z,0
2018-01-04T07:26:16.983Z,0
2018-01-04T07:26:46.372Z,0
2018-01-04T07:27:29.604Z,0
2018-01-04T07:27:58.045Z,0
2018-01-04T07:28:26.324Z,0
2018-01-04T07:28:54.760Z,0
2018-01-04T07:29:24.625Z,0
2018-01-04T07:29:52.748Z,0
2018-01-04T07:30:35.933Z,0
2018-01-04T07:31:06.893Z,0
2018-01-04T07:31:35.308Z,0
2018-01-04T07:32:03.819Z,0
2018-01-04T07:32:32.746Z,0
2018-01-04T07:33:15.258Z,0
2018-01-04T07:33:44.989Z,0
2018-01-04T07:34:13.592Z,0
2018-01-04T07:34:57.324Z,0
2018-01-04T07:35:55.637Z,0
2018-01-04T07:36:23.801Z,0
2018-01-04T07:36:52.270Z,0
2018-01-04T07:37:20.298Z,0
2018-01-04T07:37:53.647Z,0
2018-01-04T07:39:33.284Z,0
2018-01-04T07:41:00.406Z,0
2018-01-04T07:41:29.317Z,0
2018-01-04T07:41:58.535Z,0
2018-01-04T07:42:27.687Z,0
2018-01-04T07:42:57.792Z,0
2018-01-04T07:43:27.343Z,0
2018-01-04T07:43:56.346Z,0
2018-01-04T07:44:39.680Z,0
2018-01-04T07:45:08.073Z,0
2018-01-04T07:45:50.604Z,0
2018-01-04T07:46:19.088Z,0
2018-01-04T07:47:01.650Z,0
2018-01-04T07:47:30.118Z,0
2018-01-04T07:48:57.271Z,0
2018-01-04T07:49:26.612Z,0
2018-01-04T07:49:55.775Z,0
2018-01-04T07:50:25.803Z,0
2018-01-04T07:52:34.231Z,0
2018-01-04T07:53:17.917Z,0
2018-01-04T07:54:44.051Z,0
2018-01-04T07:55:28.747Z,0
2018-01-04T07:55:56.892Z,0
2018-01-04T07:56:40.479Z,0
2018-01-04T07:59:50.022Z,4
2018-01-04T08:01:15.119Z,0
2018-01-04T08:02:27.777Z,4
2018-01-04T08:03:25.447Z,8
2018-01-04T08:04:23.712Z,8
2018-01-04T08:05:35.554Z,8
2018-01-04T08:06:18.097Z,12
2018-01-04T08:07:30.543Z,12
2018-01-04T08:08:00.562Z,12
2018-01-04T08:08:30.791Z,16
2018-01-04T08:08:58.882Z,20
2018-01-04T08:10:11.098Z,24
2018-01-04T08:10:40.848Z,28
2018-01-04T08:11:24.144Z,32
2018-01-04T08:12:07.542Z,40
2018-01-04T08:12:36.628Z,40
2018-01-04T08:13:05.124Z,44
2018-01-04T08:13:33.594Z,52
2018-01-04T08:14:46.690Z,60
2018-01-04T08:15:15.275Z,68
2018-01-04T08:15:43.835Z,80
2018-01-04T08:16:12.616Z,88
2018-01-04T08:16:55.482Z,104
2018-01-04T08:17:24.033Z,116
2018-01-04T08:17:52.403Z,128
2018-01-04T08:18:20.621Z,140
2018-01-04T08:19:04.141Z,156
2018-01-04T08:20:30.631Z,200
2018-01-04T08:21:43.656Z,232
2018-01-04T08:22:12.333Z,248
2018-01-04T08:22:42.479Z,264
2018-01-04T08:23:10.432Z,280
2018-01-04T08:23:53.085Z,308
2018-01-04T08:24:21.103Z,328
2018-01-04T08:26:16.627Z,420
2018-01-04T08:27:42.565Z,500
2018-01-04T08:29:38.079Z,620
2018-01-04T08:30:06.106Z,652
2018-01-04T08:30:49.244Z,700
2018-01-04T08:31:17.296Z,732
2018-01-04T08:31:46.482Z,768
2018-01-04T08:32:15.844Z,804
2018-01-04T08:32:44.513Z,844
2018-01-04T08:33:12.551Z,880
2018-01-04T08:33:41.030Z,924
2018-01-04T08:34:10.469Z,972
2018-01-04T08:35:39.102Z,1108
2018-01-04T08:36:08.205Z,1144
2018-01-04T08:36:36.555Z,1180
2018-01-04T08:37:19.459Z,1240
2018-01-04T08:38:02.403Z,1312
2018-01-04T08:38:44.977Z,1396
2018-01-04T08:39:13.854Z,1460
2018-01-04T08:39:57.565Z,1556
2018-01-04T08:40:25.596Z,1636
2018-01-04T08:40:53.784Z,1716
2018-01-04T08:41:22.423Z,1800
2018-01-04T08:41:52.731Z,1868
2018-01-04T08:42:21.317Z,1912
2018-01-04T08:42:49.851Z,1956
2018-01-04T08:43:20.125Z,1988
2018-01-04T08:43:48.056Z,2016
2018-01-04T08:44:30.772Z,2072
2018-01-04T08:45:00.137Z,2140
2018-01-04T08:45:29.471Z,2236
2018-01-04T08:45:58.184Z,2328
2018-01-04T08:46:27.674Z,2428
2018-01-04T08:47:11.404Z,2576
2018-01-04T08:47:40.186Z,2680
2018-01-04T08:48:08.142Z,2808
2018-01-04T08:48:36.856Z,2968
2018-01-04T08:50:50.024Z,3604
2018-01-04T08:51:18.950Z,3660
2018-01-04T08:52:16.396Z,3772
2018-01-04T08:53:13.741Z,3992
2018-01-04T08:53:57.458Z,4160
2018-01-04T08:54:26.215Z,4248
2018-01-04T08:55:10.208Z,4384
2018-01-04T08:55:53.261Z,4440
2018-01-04T08:56:21.996Z,4488
2018-01-04T08:57:05.658Z,4628
2018-01-04T08:57:48.785Z,4808
2018-01-04T08:58:45.867Z,5016
2018-01-04T08:59:57.353Z,5228
2018-01-04T09:00:40.332Z,5368
2018-01-04T09:01:09.681Z,5456
2018-01-04T09:02:22.605Z,5668
2018-01-04T09:03:48.451Z,5912
2018-01-04T09:04:31.429Z,6056
2018-01-04T09:05:29.052Z,6084
2018-01-04T09:05:57.566Z,6056
2018-01-04T09:06:41.043Z,6252
2018-01-04T09:07:24.167Z,6416
2018-01-04T09:08:07.136Z,6540
2018-01-04T09:08:49.735Z,6600
2018-01-04T09:09:18.798Z,6612
2018-01-04T09:09:48.152Z,6604
2018-01-04T09:10:31.375Z,6692
2018-01-04T09:11:00.510Z,6872
2018-01-04T09:11:29.538Z,7060
2018-01-04T09:11:58.048Z,7196
2018-01-04T09:12:41.495Z,7304
2018-01-04T09:13:10.129Z,7388
2018-01-04T09:13:39.323Z,7468
2018-01-04T09:14:50.390Z,7628
2018-01-04T09:15:34.891Z,7784
2018-01-04T09:16:20.452Z,7940
2018-01-04T09:17:04.187Z,8000
2018-01-04T09:17:47.704Z,8028
2018-01-04T09:18:30.973Z,8104
2018-01-04T09:18:59.001Z,8184
2018-01-04T09:19:42.493Z,8252
2018-01-04T09:20:10.700Z,8308
2018-01-04T09:20:40.481Z,8436
2018-01-04T09:21:08.956Z,8492
2018-01-04T09:21:37.435Z,8468
2018-01-04T09:22:49.704Z,8812
2018-01-04T09:23:33.973Z,8896
2018-01-04T09:24:31.722Z,9092
2018-01-04T09:25:00.294Z,9220
2018-01-04T09:26:14.489Z,9288
2018-01-04T09:26:43.844Z,9416
2018-01-04T09:27:14.721Z,9436
2018-01-04T09:27:43.911Z,9496
2018-01-04T09:28:12.608Z,9688
2018-01-04T09:28:41.004Z,9816
2018-01-04T09:31:05.533Z,9900
2018-01-04T09:31:33.763Z,10064
2018-01-04T09:32:02.857Z,10168
2018-01-04T09:32:46.970Z,10244
2018-01-04T09:33:45.246Z,10372
2018-01-04T09:34:14.137Z,10544
2018-01-04T09:34:58.462Z,10796
2018-01-04T09:35:55.546Z,10868
2018-01-04T09:37:39.090Z,11468
2018-01-04T09:39:20.695Z,11976
2018-01-04T09:40:06.484Z,12552
2018-01-04T09:41:49.157Z,12952
2018-01-04T09:42:46.582Z,12816
2018-01-04T09:44:42.496Z,13368
2018-01-04T09:47:42.644Z,13760
2018-01-04T09:49:09.280Z,14236
2018-01-04T09:49:52.532Z,14304
2018-01-04T09:51:47.622Z,14748
2018-01-04T09:52:32.312Z,14868
2018-01-04T09:53:02.890Z,14868
2018-01-04T09:56:09.667Z,14964
2018-01-04T09:56:53.004Z,14792
2018-01-04T09:57:36.607Z,14908
2018-01-04T09:58:05.880Z,14996
2018-01-04T10:00:05.217Z,15068
2018-01-04T10:00:50.203Z,14948
2018-01-04T10:01:33.766Z,13976
2018-01-04T10:02:31.430Z,13064
2018-01-04T10:06:18.966Z,15064
2018-01-04T10:08:00.761Z,14492
2018-01-04T10:09:42.084Z,15412
2018-01-04T10:11:07.187Z,14268
2018-01-04T10:11:50.561Z,14008
2018-01-04T10:12:19.469Z,14560
2018-01-04T10:14:10.127Z,13892
2018-01-04T10:14:54.575Z,14972
2018-01-04T10:15:37.654Z,15500
2018-01-04T10:16:05.805Z,15616
2018-01-04T10:16:34.611Z,16068
2018-01-04T10:17:17.163Z,16160
2018-01-04T10:20:25.972Z,17056
2018-01-04T10:21:08.656Z,17120
2018-01-04T10:21:38.291Z,17216
2018-01-04T10:22:21.369Z,17088
2018-01-04T10:23:50.305Z,16296
2018-01-04T10:25:44.495Z,17024
2018-01-04T10:26:27.520Z,17472
2018-01-04T10:27:11.041Z,17568
2018-01-04T10:27:56.440Z,17504
2018-01-04T10:28:43.011Z,17280
2018-01-04T10:29:27.237Z,16992
2018-01-04T10:29:55.713Z,16928
2018-01-04T10:30:25.123Z,17056
2018-01-04T10:30:53.639Z,17088
2018-01-04T10:32:20.896Z,17248
2018-01-04T10:33:18.474Z,17088
2018-01-04T10:34:59.457Z,17088
2018-01-04T10:35:28.860Z,17376
2018-01-04T10:36:11.417Z,17536
2018-01-04T10:36:55.425Z,17280
2018-01-04T10:39:34.220Z,18048
2018-01-04T10:40:03.258Z,17792
2018-01-04T10:40:32.976Z,17888
2018-01-04T10:41:31.268Z,17728
2018-01-04T10:42:28.359Z,17600
2018-01-04T10:43:11.142Z,17120
2018-01-04T10:46:20.529Z,17184
2018-01-04T10:47:02.922Z,17376
2018-01-04T10:47:45.472Z,17504
2018-01-04T10:48:28.707Z,17664
2018-01-04T10:48:57.148Z,17856
2018-01-04T10:49:40.233Z,17920
2018-01-04T10:50:09.819Z,17952
2018-01-04T10:50:39.008Z,18048
2018-01-04T10:51:23.160Z,18336
2018-01-04T10:52:06.973Z,18528
2018-01-04T10:54:59.876Z,18656
2018-01-04T10:55:42.853Z,18592